Time;durP1;ratioP1;P1;durP2;ratioP2;P2;SDS_P1;SDS_P2;PMS_P1;PMS_P2;Temp;Humidity;BMP_temperature;BMP_pressure;BME280_temperature;BME280_humidity;BME280_pressure;Samples;Min_cycle;Max_cycle;Signal;HPM_P1;HPM_P2
2021/07/24 00:00:09;;;;;;;14.82;11.25;;;16.10;96.60;;;;;;5031370;28;20030;-70
2021/07/24 00:02:34;;;;;;;16.75;10.60;;;16.10;96.60;;;;;;5028925;28;20036;-70
2021/07/24 00:05:00;;;;;;;13.27;10.40;;;16.00;96.60;;;;;;5030291;28;20468;-69
2021/07/24 00:07:26;;;;;;;16.48;10.95;;;16.00;96.70;;;;;;5028518;28;20140;-69
2021/07/24 00:09:51;;;;;;;15.98;11.05;;;16.00;97.00;;;;;;5030265;28;20451;-69
2021/07/24 00:12:17;;;;;;;16.90;11.50;;;16.00;96.80;;;;;;5031142;28;20022;-69
2021/07/24 00:14:42;;;;;;;16.63;11.60;;;16.00;96.80;;;;;;5031309;28;20048;-69
2021/07/24 00:17:08;;;;;;;18.10;11.45;;;16.00;96.80;;;;;;5030929;28;20029;-69
2021/07/24 00:19:33;;;;;;;19.35;12.13;;;16.00;96.90;;;;;;5024416;28;20112;-69
2021/07/24 00:21:59;;;;;;;18.13;12.13;;;16.00;97.00;;;;;;5031925;28;20375;-69
2021/07/24 00:24:24;;;;;;;17.75;12.07;;;15.90;97.00;;;;;;5032346;28;20094;-70
2021/07/24 00:26:50;;;;;;;16.50;11.57;;;15.90;97.10;;;;;;5035824;28;20033;-70
2021/07/24 00:29:15;;;;;;;16.77;10.80;;;15.90;97.10;;;;;;5033872;28;20033;-70
2021/07/24 00:31:41;;;;;;;15.80;11.20;;;15.90;97.10;;;;;;5032926;28;20037;-70
2021/07/24 00:34:07;;;;;;;19.45;11.35;;;15.80;97.10;;;;;;5033081;28;20025;-70
2021/07/24 00:36:33;;;;;;;18.30;11.43;;;15.80;97.30;;;;;;5035281;28;20033;-70
2021/07/24 00:38:58;;;;;;;17.98;12.00;;;15.80;97.30;;;;;;5032426;28;20032;-70
2021/07/24 00:41:31;;;;;;;18.23;12.30;;;15.80;97.40;;;;;;5033255;28;20475;-70
2021/07/24 00:44:00;;;;;;;15.43;10.82;;;15.80;97.40;;;;;;5036543;28;20403;-69
2021/07/24 00:46:29;;;;;;;17.80;11.93;;;15.80;97.40;;;;;;5034441;28;20036;-70
2021/07/24 00:48:56;;;;;;;18.45;11.32;;;15.70;97.40;;;;;;5031803;28;20025;-70
2021/07/24 00:51:27;;;;;;;17.35;11.73;;;15.70;97.40;;;;;;5034870;28;20025;-70
2021/07/24 00:53:54;;;;;;;17.50;11.45;;;15.70;97.50;;;;;;5036056;28;20084;-70
2021/07/24 00:56:21;;;;;;;22.35;13.10;;;15.70;97.60;;;;;;5032731;28;20021;-69
2021/07/24 00:58:47;;;;;;;16.45;11.98;;;15.60;97.60;;;;;;5034396;28;20028;-69
2021/07/24 01:01:12;;;;;;;19.45;13.40;;;15.70;97.70;;;;;;5031829;28;20029;-69
2021/07/24 01:03:38;;;;;;;19.10;12.80;;;15.70;97.70;;;;;;5031954;28;20021;-70
2021/07/24 01:06:03;;;;;;;19.65;12.35;;;15.60;97.80;;;;;;5034302;28;20120;-70
2021/07/24 01:08:35;;;;;;;24.45;13.27;;;15.60;97.90;;;;;;5033518;28;20397;-70
2021/07/24 01:11:00;;;;;;;24.00;14.20;;;15.60;97.90;;;;;;5032168;28;20057;-70
2021/07/24 01:13:26;;;;;;;19.30;12.50;;;15.60;97.90;;;;;;5033768;28;20127;-70
2021/07/24 01:15:53;;;;;;;19.52;12.68;;;15.50;98.00;;;;;;5033001;28;20467;-70
2021/07/24 01:18:19;;;;;;;23.13;15.00;;;15.50;98.10;;;;;;5032154;28;20049;-69
2021/07/24 01:20:46;;;;;;;19.45;12.07;;;15.50;98.20;;;;;;5029980;28;20100;-70
2021/07/24 01:23:13;;;;;;;23.42;15.43;;;15.50;98.20;;;;;;5035134;28;20036;-69
2021/07/24 01:25:50;;;;;;;19.60;11.73;;;15.50;98.30;;;;;;5033093;28;20116;-69
2021/07/24 01:28:27;;;;;;;19.85;13.75;;;15.40;98.20;;;;;;5034997;28;20081;-69
2021/07/24 01:30:55;;;;;;;22.02;13.93;;;15.40;98.30;;;;;;5031947;28;20073;-70
2021/07/24 01:33:21;;;;;;;25.55;13.98;;;15.40;98.40;;;;;;5031256;28;20033;-69
2021/07/24 01:35:48;;;;;;;19.17;12.27;;;15.40;98.40;;;;;;5033631;28;20025;-69
2021/07/24 01:38:14;;;;;;;20.05;13.05;;;15.40;98.40;;;;;;5033968;28;20067;-69
2021/07/24 01:40:40;;;;;;;19.65;14.23;;;15.40;98.60;;;;;;5032664;28;20071;-69
2021/07/24 01:43:06;;;;;;;23.52;14.25;;;15.40;98.60;;;;;;5028327;28;20096;-68
2021/07/24 01:45:35;;;;;;;20.77;13.70;;;15.40;98.70;;;;;;5030204;28;20057;-69
2021/07/24 01:48:03;;;;;;;23.83;13.80;;;15.40;98.80;;;;;;5032547;28;20032;-69
2021/07/24 01:53:13;;;;;;;23.95;13.95;;;15.30;99.00;;;;;;5030308;28;20029;-69
2021/07/24 01:56:03;;;;;;;21.17;14.05;;;15.30;99.00;;;;;;5034437;28;20030;-69
2021/07/24 01:58:32;;;;;;;22.00;13.32;;;15.30;99.00;;;;;;5031899;28;20403;-70
2021/07/24 02:01:03;;;;;;;23.70;13.93;;;15.30;99.10;;;;;;5033811;28;20099;-70
2021/07/24 02:03:42;;;;;;;24.25;14.85;;;15.30;99.10;;;;;;5029976;28;20494;-70
2021/07/24 02:06:13;;;;;;;23.30;14.88;;;15.20;99.10;;;;;;5030517;28;20032;-70
2021/07/24 02:08:43;;;;;;;19.33;12.30;;;15.20;99.20;;;;;;5032605;28;20033;-70
2021/07/24 02:11:09;;;;;;;23.50;14.70;;;15.20;99.10;;;;;;5033880;28;20032;-70
2021/07/24 02:13:34;;;;;;;25.60;14.25;;;15.20;99.20;;;;;;5031387;28;20042;-70
2021/07/24 02:16:00;;;;;;;21.25;14.10;;;15.20;99.30;;;;;;5031330;28;20068;-70
2021/07/24 02:18:27;;;;;;;21.52;14.32;;;15.20;99.40;;;;;;5033313;28;20036;-70
2021/07/24 02:20:53;;;;;;;22.70;13.10;;;15.10;99.40;;;;;;5033308;28;20057;-70
2021/07/24 02:23:19;;;;;;;22.10;13.93;;;15.10;99.40;;;;;;5029949;28;20480;-70
2021/07/24 02:25:45;;;;;;;22.13;13.55;;;15.20;99.50;;;;;;5032350;28;20475;-70
2021/07/24 02:28:11;;;;;;;20.02;12.25;;;15.10;99.50;;;;;;5033344;28;20116;-70
2021/07/24 02:30:37;;;;;;;21.15;13.13;;;15.10;99.60;;;;;;5031246;28;20044;-70
2021/07/24 02:33:03;;;;;;;21.67;14.70;;;15.10;99.60;;;;;;5030177;28;20051;-70
2021/07/24 02:35:29;;;;;;;23.80;14.38;;;15.10;99.70;;;;;;5032105;28;20040;-71
2021/07/24 02:37:54;;;;;;;21.27;13.95;;;15.10;99.70;;;;;;5033561;28;20037;-70
2021/07/24 02:40:21;;;;;;;22.20;14.65;;;15.10;99.80;;;;;;5031005;28;20399;-70
2021/07/24 02:42:47;;;;;;;24.15;14.23;;;15.00;99.70;;;;;;5031103;28;20033;-70
2021/07/24 02:45:13;;;;;;;19.67;13.70;;;15.00;99.80;;;;;;5027904;28;20048;-70
2021/07/24 02:47:38;;;;;;;26.65;14.05;;;15.00;99.80;;;;;;5033831;28;20026;-70
2021/07/24 02:50:04;;;;;;;25.40;14.77;;;15.00;99.90;;;;;;5031173;28;20025;-70
2021/07/24 02:52:30;;;;;;;25.65;15.30;;;15.00;99.90;;;;;;5029902;28;20033;-70
2021/07/24 02:54:55;;;;;;;24.90;15.63;;;14.90;99.90;;;;;;5029656;28;20403;-69
2021/07/24 02:57:21;;;;;;;25.50;16.10;;;14.90;99.90;;;;;;5031821;28;20446;-70
2021/07/24 02:59:46;;;;;;;24.25;14.88;;;14.90;99.90;;;;;;5031798;28;20021;-69
2021/07/24 03:02:18;;;;;;;23.52;15.07;;;14.90;99.90;;;;;;5032609;28;20032;-70
2021/07/24 03:04:44;;;;;;;26.65;16.83;;;14.80;99.90;;;;;;5025736;28;20087;-70
2021/07/24 03:07:10;;;;;;;21.00;13.70;;;14.80;99.90;;;;;;5033459;28;20022;-70
2021/07/24 03:09:36;;;;;;;25.23;14.70;;;14.80;99.90;;;;;;5029170;28;20031;-70
2021/07/24 03:12:02;;;;;;;30.58;16.38;;;14.80;99.90;;;;;;5017153;28;20060;-69
2021/07/24 03:14:27;;;;;;;25.00;14.98;;;14.80;99.90;;;;;;5029896;28;20073;-69
2021/07/24 03:16:54;;;;;;;27.35;14.63;;;14.80;99.90;;;;;;5031403;28;20522;-69
2021/07/24 03:19:19;;;;;;;21.67;13.15;;;14.80;99.90;;;;;;5031505;28;20030;-70
2021/07/24 03:21:45;;;;;;;27.58;15.25;;;14.70;99.90;;;;;;5019280;28;20033;-69
2021/07/24 03:24:10;;;;;;;27.98;15.25;;;14.80;99.90;;;;;;5031338;28;20108;-70
2021/07/24 03:26:36;;;;;;;21.90;13.20;;;14.70;99.90;;;;;;5029936;28;20051;-69
2021/07/24 03:29:02;;;;;;;25.33;16.15;;;14.70;99.90;;;;;;5032253;28;20388;-69
2021/07/24 03:31:27;;;;;;;24.90;14.88;;;14.70;99.90;;;;;;5031910;28;20033;-70
2021/07/24 03:33:53;;;;;;;26.63;15.80;;;14.60;99.90;;;;;;5031061;28;20025;-69
2021/07/24 03:36:18;;;;;;;22.38;13.00;;;14.60;99.90;;;;;;5030072;28;20396;-69
2021/07/24 03:38:44;;;;;;;25.23;15.20;;;14.60;99.90;;;;;;5032046;28;20101;-69
2021/07/24 03:41:09;;;;;;;26.52;14.82;;;14.60;99.90;;;;;;5028560;28;20116;-69
2021/07/24 03:43:35;;;;;;;25.35;15.50;;;14.60;99.90;;;;;;5030301;28;20403;-69
2021/07/24 03:46:00;;;;;;;26.02;15.07;;;14.60;99.90;;;;;;5029769;28;20488;-70
2021/07/24 03:48:26;;;;;;;27.60;15.82;;;14.60;99.90;;;;;;5032097;28;20026;-69
2021/07/24 03:50:52;;;;;;;27.00;14.68;;;14.50;99.90;;;;;;5030915;28;20045;-70
2021/07/24 03:53:17;;;;;;;28.48;15.13;;;14.50;99.90;;;;;;5032494;28;20037;-69
2021/07/24 03:55:44;;;;;;;29.05;16.60;;;14.50;99.90;;;;;;5024347;28;20036;-70
2021/07/24 03:58:10;;;;;;;24.95;13.93;;;14.50;99.90;;;;;;5028943;28;20022;-69
2021/07/24 04:00:53;;;;;;;25.17;14.68;;;14.50;99.90;;;;;;5031763;28;20033;-69
2021/07/24 04:03:24;;;;;;;28.40;15.38;;;14.50;99.90;;;;;;5034657;28;20056;-69
2021/07/24 04:05:51;;;;;;;26.45;15.30;;;14.50;99.90;;;;;;5034533;28;20496;-70
2021/07/24 04:08:17;;;;;;;24.23;14.38;;;14.50;99.90;;;;;;5034217;28;20067;-69
2021/07/24 04:10:43;;;;;;;26.73;14.45;;;14.50;99.90;;;;;;5034744;28;20060;-69
2021/07/24 04:13:08;;;;;;;23.30;14.43;;;14.60;99.90;;;;;;5032951;28;20028;-69
2021/07/24 04:15:36;;;;;;;25.67;14.85;;;14.60;99.90;;;;;;5032010;28;20029;-70
2021/07/24 04:18:07;;;;;;;22.33;14.43;;;14.60;99.90;;;;;;5035594;28;20113;-70
2021/07/24 04:20:36;;;;;;;24.75;13.65;;;14.70;99.90;;;;;;5032680;28;20492;-69
2021/07/24 04:23:01;;;;;;;23.92;14.23;;;14.70;99.90;;;;;;5036370;28;20037;-69
2021/07/24 04:25:27;;;;;;;24.50;14.32;;;14.80;99.90;;;;;;5034650;28;20044;-69
2021/07/24 04:27:52;;;;;;;25.15;14.95;;;14.80;99.90;;;;;;5028469;28;20032;-70
2021/07/24 04:30:18;;;;;;;24.52;13.60;;;14.90;99.90;;;;;;5035663;28;20096;-70
2021/07/24 04:32:43;;;;;;;25.17;14.70;;;14.90;99.90;;;;;;5034373;28;20037;-70
2021/07/24 04:35:09;;;;;;;25.08;13.20;;;14.90;99.90;;;;;;5035280;28;20099;-71
2021/07/24 04:37:34;;;;;;;24.13;14.23;;;14.90;99.90;;;;;;5033632;28;20120;-70
2021/07/24 04:40:02;;;;;;;32.35;15.20;;;14.90;99.90;;;;;;5029212;28;20484;-70
2021/07/24 04:42:28;;;;;;;25.75;14.43;;;15.00;99.90;;;;;;5026726;28;20449;-70
2021/07/24 04:44:53;;;;;;;26.50;15.00;;;15.00;99.90;;;;;;5036136;28;20057;-70
2021/07/24 04:47:19;;;;;;;27.95;15.05;;;15.00;99.90;;;;;;5033072;28;20033;-69
2021/07/24 04:49:49;;;;;;;25.15;14.90;;;15.00;99.90;;;;;;5031374;28;20698;-69
2021/07/24 04:52:15;;;;;;;25.30;14.57;;;15.10;99.90;;;;;;5032504;28;20057;-70
2021/07/24 04:54:43;;;;;;;23.42;13.88;;;15.10;99.90;;;;;;5031318;28;20038;-70
2021/07/24 04:57:09;;;;;;;23.83;14.80;;;15.20;99.90;;;;;;5027731;28;20029;-69
2021/07/24 04:59:37;;;;;;;31.67;14.68;;;15.20;99.90;;;;;;5034031;28;20318;-70
2021/07/24 05:02:03;;;;;;;27.45;14.70;;;15.30;99.90;;;;;;5030924;28;20088;-70
2021/07/24 05:04:30;;;;;;;24.05;14.93;;;15.30;99.90;;;;;;5028055;28;20512;-71
2021/07/24 05:06:56;;;;;;;22.48;13.77;;;15.30;99.90;;;;;;5028351;28;20048;-70
2021/07/24 05:09:22;;;;;;;19.73;12.48;;;15.30;99.90;;;;;;5030841;28;20468;-71
2021/07/24 05:11:48;;;;;;;22.23;13.05;;;15.40;99.90;;;;;;5029966;28;20376;-71
2021/07/24 05:14:13;;;;;;;24.33;14.27;;;15.40;99.90;;;;;;5017618;28;20042;-72
2021/07/24 05:16:39;;;;;;;21.70;13.80;;;15.50;99.90;;;;;;5024025;28;20025;-71
2021/07/24 05:19:06;;;;;;;23.85;14.32;;;15.50;99.90;;;;;;5026690;28;20036;-72
2021/07/24 05:21:32;;;;;;;17.98;11.77;;;15.60;99.90;;;;;;5032674;28;20037;-72
2021/07/24 05:23:57;;;;;;;23.10;13.83;;;15.60;99.90;;;;;;5026585;28;20476;-69
2021/07/24 05:26:23;;;;;;;25.10;14.13;;;15.60;99.90;;;;;;5030512;28;20254;-70
2021/07/24 05:28:49;;;;;;;19.85;12.68;;;15.70;99.90;;;;;;5030804;28;20025;-71
2021/07/24 05:31:20;;;;;;;20.75;12.85;;;15.80;99.90;;;;;;5031745;28;20034;-71
2021/07/24 05:33:46;;;;;;;19.93;12.57;;;15.90;99.90;;;;;;5022742;28;20034;-71
2021/07/24 05:36:11;;;;;;;22.48;13.68;;;16.00;99.90;;;;;;5022836;28;20124;-72
2021/07/24 05:38:37;;;;;;;18.83;11.15;;;16.20;99.90;;;;;;5022212;28;20022;-71
2021/07/24 05:41:03;;;;;;;18.10;11.82;;;16.30;99.90;;;;;;5023314;28;20017;-70
2021/07/24 05:43:29;;;;;;;22.30;12.15;;;16.40;99.90;;;;;;5017438;28;20381;-71
2021/07/24 05:45:55;;;;;;;21.08;12.57;;;16.50;99.70;;;;;;5017123;28;20046;-70
2021/07/24 05:48:20;;;;;;;26.33;14.05;;;16.60;99.40;;;;;;5018222;28;20033;-71
2021/07/24 05:50:46;;;;;;;21.13;12.68;;;16.70;99.30;;;;;;5019581;28;20060;-73
2021/07/24 05:53:20;;;;;;;17.65;10.98;;;16.70;99.00;;;;;;5019206;28;20021;-72
2021/07/24 05:55:45;;;;;;;19.58;11.82;;;16.70;99.00;;;;;;5019346;28;20057;-72
2021/07/24 05:58:11;;;;;;;23.30;13.23;;;16.80;98.90;;;;;;5013081;28;20168;-72
2021/07/24 06:00:37;;;;;;;14.52;10.50;;;16.90;98.70;;;;;;5025274;28;20029;-72
2021/07/24 06:03:02;;;;;;;18.02;12.15;;;17.00;98.70;;;;;;5029797;28;20029;-72
2021/07/24 06:05:35;;;;;;;19.88;12.63;;;17.10;98.40;;;;;;5027018;28;20032;-73
2021/07/24 06:08:01;;;;;;;16.52;11.80;;;17.20;98.00;;;;;;5019136;28;20485;-72
2021/07/24 06:10:27;;;;;;;18.65;11.68;;;17.30;97.90;;;;;;5029877;28;20095;-71
2021/07/24 06:12:52;;;;;;;18.23;12.45;;;17.40;97.70;;;;;;5023392;28;20488;-70
2021/07/24 06:15:18;;;;;;;17.90;12.07;;;17.50;97.30;;;;;;5022241;28;20036;-71
2021/07/24 06:17:43;;;;;;;15.82;11.20;;;17.60;97.10;;;;;;5020766;28;20507;-71
2021/07/24 06:20:09;;;;;;;16.67;10.85;;;17.60;97.10;;;;;;5025973;28;20083;-71
2021/07/24 06:22:34;;;;;;;18.35;12.25;;;17.60;97.00;;;;;;5023928;28;20043;-71
2021/07/24 06:25:00;;;;;;;17.98;11.10;;;17.70;96.80;;;;;;5020370;28;20057;-71
2021/07/24 06:27:25;;;;;;;16.83;10.63;;;17.80;96.70;;;;;;5025033;28;20125;-71
2021/07/24 06:29:51;;;;;;;15.88;10.48;;;17.90;96.60;;;;;;5024958;28;20030;-71
2021/07/24 06:32:16;;;;;;;18.15;11.52;;;18.00;96.40;;;;;;5026446;28;20628;-71
2021/07/24 06:34:42;;;;;;;14.70;10.95;;;18.10;96.20;;;;;;5025622;28;20029;-72
2021/07/24 06:37:08;;;;;;;18.55;12.40;;;18.10;95.80;;;;;;5017914;28;20022;-73
2021/07/24 06:39:34;;;;;;;19.25;10.95;;;18.00;95.60;;;;;;5022463;28;20048;-71
2021/07/24 06:42:00;;;;;;;18.30;11.88;;;18.00;95.70;;;;;;5024626;28;20111;-73
2021/07/24 06:44:27;;;;;;;17.17;11.55;;;18.00;95.60;;;;;;5022296;28;20041;-71
2021/07/24 06:46:53;;;;;;;14.65;10.77;;;18.00;95.70;;;;;;5029009;28;20033;-71
2021/07/24 06:49:19;;;;;;;14.23;10.82;;;18.10;95.60;;;;;;5023843;28;20021;-71
2021/07/24 06:51:45;;;;;;;16.63;11.57;;;18.10;95.60;;;;;;5018952;28;20538;-72
2021/07/24 06:54:11;;;;;;;17.83;11.30;;;18.10;95.60;;;;;;5020213;28;20037;-71
2021/07/24 06:56:37;;;;;;;17.42;10.10;;;18.10;95.70;;;;;;5024444;28;20080;-72
2021/07/24 06:59:02;;;;;;;16.75;11.18;;;18.20;95.60;;;;;;5031128;28;20034;-71
2021/07/24 07:01:28;;;;;;;16.65;12.60;;;18.30;95.60;;;;;;5029863;28;20420;-72
2021/07/24 07:03:53;;;;;;;24.38;13.70;;;18.30;95.30;;;;;;5029824;28;20022;-72
2021/07/24 07:06:19;;;;;;;17.45;11.68;;;18.30;95.20;;;;;;5030321;28;20388;-72
2021/07/24 07:08:44;;;;;;;16.13;9.75;;;18.30;95.30;;;;;;5030202;28;20052;-72
2021/07/24 07:11:10;;;;;;;18.08;12.63;;;18.40;95.50;;;;;;5030754;28;20463;-72
2021/07/24 07:13:36;;;;;;;14.80;10.85;;;18.40;95.10;;;;;;5030861;28;20038;-72
2021/07/24 07:16:05;;;;;;;16.83;11.60;;;18.50;95.20;;;;;;5025124;28;20045;-70
2021/07/24 07:18:31;;;;;;;16.88;10.77;;;18.60;95.10;;;;;;5021778;28;20387;-70
2021/07/24 07:20:57;;;;;;;17.55;11.85;;;18.50;95.00;;;;;;5030071;28;20056;-71
2021/07/24 07:23:22;;;;;;;18.98;11.63;;;18.50;94.90;;;;;;5029425;28;20064;-71
2021/07/24 07:25:48;;;;;;;17.23;12.02;;;18.60;94.90;;;;;;5030822;28;20041;-71
2021/07/24 07:28:13;;;;;;;14.70;10.77;;;18.70;95.00;;;;;;5030440;28;20064;-71
2021/07/24 07:30:39;;;;;;;18.40;11.70;;;18.70;94.80;;;;;;5029003;28;20104;-71
2021/07/24 07:33:05;;;;;;;17.00;11.20;;;18.70;94.80;;;;;;5030814;28;20496;-71
2021/07/24 07:35:30;;;;;;;17.00;11.38;;;18.80;94.80;;;;;;5030036;28;20169;-71
2021/07/24 07:37:56;;;;;;;16.55;10.93;;;18.90;94.80;;;;;;5031881;28;20548;-71
2021/07/24 07:40:22;;;;;;;16.35;11.05;;;19.00;94.60;;;;;;5029090;28;20029;-71
2021/07/24 07:42:48;;;;;;;17.10;11.52;;;19.00;94.40;;;;;;5031097;28;20033;-71
2021/07/24 07:45:14;;;;;;;14.40;10.85;;;19.10;94.20;;;;;;5032280;28;20029;-71
2021/07/24 07:47:39;;;;;;;15.63;10.40;;;19.20;94.00;;;;;;5028695;28;20025;-71
2021/07/24 07:50:06;;;;;;;17.48;11.05;;;19.30;94.00;;;;;;5027317;28;20033;-71
2021/07/24 07:52:32;;;;;;;13.10;9.55;;;19.30;94.00;;;;;;5031552;28;20033;-70
2021/07/24 07:54:59;;;;;;;16.98;12.07;;;19.40;93.80;;;;;;5030590;28;20038;-71
2021/07/24 07:57:25;;;;;;;13.65;9.38;;;19.40;93.60;;;;;;5027390;28;20056;-71
2021/07/24 07:59:53;;;;;;;14.77;10.73;;;19.60;93.50;;;;;;5028602;28;20136;-71
2021/07/24 08:02:19;;;;;;;15.55;9.98;;;19.60;93.30;;;;;;5023938;28;20037;-71
2021/07/24 08:04:44;;;;;;;14.05;9.93;;;19.70;93.30;;;;;;5027872;28;20032;-71
2021/07/24 08:07:10;;;;;;;14.63;10.38;;;19.80;93.30;;;;;;5027206;28;20383;-71
2021/07/24 08:09:36;;;;;;;19.23;10.90;;;19.80;92.60;;;;;;5018390;28;20440;-71
2021/07/24 08:12:02;;;;;;;13.48;8.98;;;19.90;92.70;;;;;;5023968;28;20150;-71
2021/07/24 08:14:28;;;;;;;15.63;9.65;;;20.10;92.90;;;;;;5024183;28;20573;-70
2021/07/24 08:16:53;;;;;;;15.73;10.63;;;20.30;92.40;;;;;;5030418;28;20060;-71
2021/07/24 08:19:19;;;;;;;15.90;10.45;;;20.40;92.00;;;;;;5030226;28;20100;-71
2021/07/24 08:21:45;;;;;;;13.85;9.55;;;20.60;92.00;;;;;;5027976;28;20051;-72
2021/07/24 08:24:10;;;;;;;16.00;10.93;;;20.80;91.90;;;;;;5025818;28;20091;-71
2021/07/24 08:26:36;;;;;;;14.23;10.10;;;20.90;91.40;;;;;;5022556;28;20105;-71
2021/07/24 08:29:02;;;;;;;13.88;10.40;;;21.00;91.30;;;;;;5026698;28;20108;-70
2021/07/24 08:31:28;;;;;;;14.05;10.15;;;21.00;90.80;;;;;;5020155;28;20025;-71
2021/07/24 08:33:54;;;;;;;14.00;10.10;;;21.00;90.80;;;;;;5023646;28;20071;-70
2021/07/24 08:36:19;;;;;;;15.43;9.32;;;21.10;90.80;;;;;;5026042;28;20030;-70
2021/07/24 08:38:45;;;;;;;16.20;10.98;;;21.20;90.60;;;;;;5028454;28;20442;-70
2021/07/24 08:41:15;;;;;;;10.93;8.88;;;21.30;90.40;;;;;;5020377;28;20036;-70
2021/07/24 08:43:43;;;;;;;13.32;9.48;;;21.40;90.40;;;;;;5020439;28;20037;-71
2021/07/24 08:46:09;;;;;;;11.57;8.45;;;21.50;90.30;;;;;;5023918;28;20120;-70
2021/07/24 08:48:34;;;;;;;13.13;9.48;;;21.70;90.40;;;;;;5039787;28;20104;-70
2021/07/24 08:51:01;;;;;;;13.00;9.18;;;21.90;90.00;;;;;;5025787;28;20076;-70
2021/07/24 08:53:29;;;;;;;16.30;11.02;;;22.00;89.80;;;;;;5024400;28;20024;-70
2021/07/24 08:56:13;;;;;;;13.63;10.55;;;22.00;88.90;;;;;;5027738;28;20021;-69
2021/07/24 08:58:41;;;;;;;10.75;8.60;;;22.10;88.50;;;;;;5027179;28;20029;-70
2021/07/24 09:01:16;;;;;;;13.48;9.60;;;22.10;88.60;;;;;;5031124;28;20057;-70
2021/07/24 09:03:41;;;;;;;13.43;10.00;;;22.10;87.30;;;;;;5027870;28;20087;-69
2021/07/24 09:06:09;;;;;;;11.57;8.68;;;22.20;86.80;;;;;;5028720;28;20475;-70
2021/07/24 09:08:36;;;;;;;12.57;9.23;;;22.20;87.20;;;;;;5020868;28;20029;-71
2021/07/24 09:11:01;;;;;;;17.25;10.02;;;22.20;87.40;;;;;;5028322;28;20097;-72
2021/07/24 09:13:27;;;;;;;10.65;8.30;;;22.30;86.70;;;;;;5019294;28;20163;-72
2021/07/24 09:15:54;;;;;;;13.18;8.88;;;22.30;86.90;;;;;;5028732;28;20111;-73
2021/07/24 09:18:22;;;;;;;11.45;8.07;;;22.30;86.80;;;;;;5030358;28;20465;-71
2021/07/24 09:20:49;;;;;;;12.98;8.82;;;22.50;87.30;;;;;;5034282;28;20036;-70
2021/07/24 09:23:31;;;;;;;10.35;7.80;;;22.70;86.80;;;;;;5031370;28;20053;-72
2021/07/24 09:25:57;;;;;;;10.70;8.45;;;22.90;87.00;;;;;;5034620;28;20435;-72
2021/07/24 09:28:23;;;;;;;9.65;8.05;;;23.00;86.00;;;;;;5032161;28;20037;-73
2021/07/24 09:30:49;;;;;;;9.73;7.85;;;23.10;85.50;;;;;;5029831;28;20029;-71
2021/07/24 09:33:20;;;;;;;11.73;9.05;;;23.20;85.40;;;;;;5027112;28;20388;-71
2021/07/24 09:35:53;;;;;;;13.60;8.20;;;23.40;84.80;;;;;;5020736;28;20661;-71
2021/07/24 09:38:37;;;;;;;9.40;8.00;;;23.50;84.10;;;;;;5031724;28;20087;-69
2021/07/24 09:41:04;;;;;;;12.38;9.05;;;23.40;83.20;;;;;;5028539;28;20030;-71
2021/07/24 09:43:34;;;;;;;12.00;9.20;;;23.30;83.90;;;;;;5032434;28;20060;-70
2021/07/24 09:46:19;;;;;;;11.02;8.10;;;23.40;83.70;;;;;;5023916;28;20029;-72
2021/07/24 09:48:50;;;;;;;12.88;8.95;;;23.40;84.00;;;;;;5021905;28;20080;-71
2021/07/24 09:51:30;;;;;;;12.38;8.50;;;23.40;83.80;;;;;;5027088;28;20021;-72
2021/07/24 09:53:56;;;;;;;11.57;8.90;;;23.50;83.90;;;;;;5028349;28;20067;-70
2021/07/24 09:56:40;;;;;;;12.13;8.95;;;23.50;83.60;;;;;;5029539;28;20472;-71
2021/07/24 09:59:34;;;;;;;11.88;9.00;;;23.60;82.80;;;;;;5031182;28;20512;-70
2021/07/24 10:02:05;;;;;;;11.45;8.68;;;23.60;82.70;;;;;;5028032;28;20483;-71
2021/07/24 10:04:35;;;;;;;11.05;8.77;;;23.70;82.70;;;;;;5028555;28;20172;-71
2021/07/24 10:07:05;;;;;;;12.02;8.63;;;23.70;83.00;;;;;;5026862;28;20511;-71
2021/07/24 10:09:33;;;;;;;12.55;9.02;;;23.80;83.30;;;;;;5022582;28;20033;-71
2021/07/24 10:12:12;;;;;;;12.32;9.20;;;24.00;83.00;;;;;;5016754;28;20369;-71
2021/07/24 10:14:39;;;;;;;10.65;8.35;;;24.00;82.10;;;;;;5030828;28;20053;-71
2021/07/24 10:17:05;;;;;;;13.43;7.78;;;24.10;81.70;;;;;;5027909;28;20026;-71
2021/07/24 10:19:31;;;;;;;11.35;8.70;;;24.20;81.60;;;;;;5030070;28;20034;-71
2021/07/24 10:21:58;;;;;;;10.85;8.60;;;24.20;81.40;;;;;;5032518;28;20030;-71
2021/07/24 10:24:25;;;;;;;11.38;8.65;;;24.30;81.20;;;;;;5030358;28;20030;-71
2021/07/24 10:27:07;;;;;;;10.25;8.38;;;24.30;80.80;;;;;;5030139;28;20018;-71
2021/07/24 10:29:35;;;;;;;;;;;24.30;80.70;;;;;;5031466;28;20034;-71
2021/07/24 10:32:11;;;;;;;9.85;7.68;;;24.30;81.20;;;;;;5031283;28;19909;-71
2021/07/24 10:34:40;;;;;;;9.82;7.32;;;24.30;81.60;;;;;;5029481;28;20040;-71
2021/07/24 10:37:33;;;;;;;10.27;8.00;;;24.30;81.30;;;;;;5025987;28;20037;-70
2021/07/24 10:40:19;;;;;;;12.27;8.32;;;24.30;81.60;;;;;;5023714;28;22294;-71
2021/07/24 10:42:50;;;;;;;9.50;8.18;;;24.20;81.70;;;;;;5030034;28;20476;-71
2021/07/24 10:45:37;;;;;;;11.43;9.18;;;24.20;83.30;;;;;;5032336;28;20053;-70
2021/07/24 10:48:14;;;;;;;10.30;7.93;;;24.10;82.60;;;;;;5024371;28;20037;-71
2021/07/24 10:51:00;;;;;;;10.07;8.13;;;24.00;82.80;;;;;;5027059;28;20030;-71
2021/07/24 10:53:48;;;;;;;11.70;9.13;;;23.90;83.40;;;;;;5019679;28;20427;-71
2021/07/24 10:56:37;;;;;;;12.25;9.63;;;23.80;83.70;;;;;;5026066;28;20029;-71
2021/07/24 10:59:26;;;;;;;11.88;8.93;;;23.80;84.30;;;;;;5026335;28;20042;-72
2021/07/24 11:01:54;;;;;;;11.75;8.35;;;23.80;84.20;;;;;;5021630;28;20040;-71
2021/07/24 11:04:35;;;;;;;13.38;9.68;;;23.80;84.40;;;;;;5021563;28;20029;-71
2021/07/24 11:07:15;;;;;;;11.23;8.90;;;23.90;84.60;;;;;;5024181;28;20100;-71
2021/07/24 11:09:45;;;;;;;15.07;10.35;;;23.90;84.10;;;;;;5028040;28;20052;-71
2021/07/24 11:12:13;;;;;;;11.65;8.93;;;23.90;83.80;;;;;;5029668;28;20400;-71
2021/07/24 11:14:38;;;;;;;12.77;8.15;;;23.90;84.50;;;;;;5032855;28;20084;-71
2021/07/24 11:17:04;;;;;;;12.90;10.07;;;23.80;84.00;;;;;;5029295;28;20057;-71
2021/07/24 11:19:30;;;;;;;10.82;8.73;;;23.70;83.80;;;;;;5032020;28;20032;-71
2021/07/24 11:22:13;;;;;;;11.07;9.30;;;23.70;84.50;;;;;;5032903;28;20034;-71
2021/07/24 11:24:40;;;;;;;13.27;9.23;;;23.70;84.50;;;;;;5015853;28;20049;-71
2021/07/24 11:27:06;;;;;;;12.82;8.63;;;23.60;84.60;;;;;;5026939;28;20387;-71
2021/07/24 11:29:32;;;;;;;17.67;11.43;;;23.60;84.90;;;;;;5029184;28;20029;-71
2021/07/24 11:32:02;;;;;;;12.32;9.30;;;23.60;85.00;;;;;;5025408;28;20021;-71
2021/07/24 11:34:30;;;;;;;12.80;10.32;;;23.50;84.60;;;;;;5029504;28;20026;-71
2021/07/24 11:36:56;;;;;;;13.50;10.07;;;23.50;84.90;;;;;;5030660;28;20036;-71
2021/07/24 11:39:29;;;;;;;14.35;10.35;;;23.40;85.50;;;;;;5028333;28;20388;-71
2021/07/24 11:41:55;;;;;;;16.80;10.38;;;23.40;85.90;;;;;;5028682;28;20032;-71
2021/07/24 11:44:28;;;;;;;12.15;9.30;;;23.50;85.70;;;;;;5032262;28;20483;-71
2021/07/24 11:47:01;;;;;;;13.30;9.35;;;23.40;85.50;;;;;;5031286;28;20033;-71
2021/07/24 11:49:28;;;;;;;11.27;8.57;;;23.30;86.00;;;;;;5020956;28;20045;-71
2021/07/24 11:51:54;;;;;;;15.70;9.68;;;23.30;86.30;;;;;;5030064;28;20017;-71
2021/07/24 11:54:31;;;;;;;14.73;10.13;;;23.30;86.20;;;;;;5030885;28;20036;-71
2021/07/24 11:56:57;;;;;;;16.15;11.10;;;23.30;86.20;;;;;;5029709;28;20075;-71
2021/07/24 11:59:23;;;;;;;15.52;11.05;;;23.20;86.10;;;;;;5029030;28;20438;-71
2021/07/24 12:01:49;;;;;;;17.20;10.88;;;23.10;86.30;;;;;;5032707;28;20064;-71
2021/07/24 12:04:16;;;;;;;13.57;10.05;;;23.00;87.20;;;;;;5026460;28;20108;-71
2021/07/24 12:07:06;;;;;;;13.23;10.68;;;23.00;87.50;;;;;;5028919;28;20030;-71
2021/07/24 12:09:32;;;;;;;14.75;10.40;;;22.90;87.90;;;;;;5023532;28;20037;-71
2021/07/24 12:12:01;;;;;;;15.30;10.48;;;23.00;88.10;;;;;;5030993;28;20029;-71
2021/07/24 12:14:29;;;;;;;13.68;10.38;;;23.00;87.90;;;;;;5029622;28;20120;-71
2021/07/24 12:17:08;;;;;;;14.02;9.75;;;23.00;88.60;;;;;;5029218;28;20029;-71
2021/07/24 12:19:41;;;;;;;15.48;10.10;;;23.10;88.50;;;;;;5029798;28;20060;-71
2021/07/24 12:22:14;;;;;;;14.38;10.05;;;23.20;88.30;;;;;;5037310;28;20025;-71
2021/07/24 12:24:41;;;;;;;13.63;10.73;;;23.30;88.40;;;;;;5033276;28;20033;-71
2021/07/24 12:27:09;;;;;;;14.65;10.35;;;23.40;88.10;;;;;;5036752;28;20022;-71
2021/07/24 12:29:52;;;;;;;12.10;9.55;;;23.50;88.00;;;;;;5031652;28;20048;-71
2021/07/24 12:32:20;;;;;;;15.98;10.40;;;23.70;87.70;;;;;;5031766;28;20494;-71
2021/07/24 12:34:48;;;;;;;13.02;9.63;;;23.80;87.00;;;;;;5030683;28;20305;-71
2021/07/24 12:37:31;;;;;;;15.00;9.32;;;24.00;86.50;;;;;;5021498;28;20022;-71